sensor_id;sensor_type;location;lat;lon;timestamp;temperature;humidity
4187;DHT22;2107;52.306;10.484;2024-02-26T00:02:02;2.60;99.90
4187;DHT22;2107;52.306;10.484;2024-02-26T00:04:29;2.50;99.90
4187;DHT22;2107;52.306;10.484;2024-02-26T00:06:57;2.40;1.00
4187;DHT22;2107;52.306;10.484;2024-02-26T00:09:24;2.40;99.90
4187;DHT22;2107;52.306;10.484;2024-02-26T00:11:51;2.40;99.90
4187;DHT22;2107;52.306;10.484;2024-02-26T00:14:18;2.40;1.00
4187;DHT22;2107;52.306;10.484;2024-02-26T00:16:45;2.10;99.90
4187;DHT22;2107;52.306;10.484;2024-02-26T00:19:12;2.10;99.90
4187;DHT22;2107;52.306;10.484;2024-02-26T00:21:40;2.10;99.90
4187;DHT22;2107;52.306;10.484;2024-02-26T00:24:09;2.10;99.90
4187;DHT22;2107;52.306;10.484;2024-02-26T00:26:35;2.00;99.90
4187;DHT22;2107;52.306;10.484;2024-02-26T00:29:02;2.00;99.90
4187;DHT22;2107;52.306;10.484;2024-02-26T00:31:29;2.00;1.00
4187;DHT22;2107;52.306;10.484;2024-02-26T00:33:56;2.10;68.50
4187;DHT22;2107;52.306;10.484;2024-02-26T00:36:23;2.10;99.90
4187;DHT22;2107;52.306;10.484;2024-02-26T00:38:50;2.10;99.90
4187;DHT22;2107;52.306;10.484;2024-02-26T00:41:19;2.10;99.90
4187;DHT22;2107;52.306;10.484;2024-02-26T00:43:46;2.00;38.00
4187;DHT22;2107;52.306;10.484;2024-02-26T00:46:13;2.00;99.90
4187;DHT22;2107;52.306;10.484;2024-02-26T00:48:40;2.00;99.90
4187;DHT22;2107;52.306;10.484;2024-02-26T00:51:07;2.00;99.90
4187;DHT22;2107;52.306;10.484;2024-02-26T00:53:34;1.90;99.90
4187;DHT22;2107;52.306;10.484;2024-02-26T00:56:01;1.90;99.90
4187;DHT22;2107;52.306;10.484;2024-02-26T00:58:29;1.90;99.90
4187;DHT22;2107;52.306;10.484;2024-02-26T01:00:56;1.80;99.90
4187;DHT22;2107;52.306;10.484;2024-02-26T01:03:23;1.80;99.90
4187;DHT22;2107;52.306;10.484;2024-02-26T01:05:49;1.70;1.00
4187;DHT22;2107;52.306;10.484;2024-02-26T01:08:16;1.60;99.90
4187;DHT22;2107;52.306;10.484;2024-02-26T01:10:44;1.60;1.00
4187;DHT22;2107;52.306;10.484;2024-02-26T01:13:11;1.50;4.40
4187;DHT22;2107;52.306;10.484;2024-02-26T01:15:40;1.40;99.90
4187;DHT22;2107;52.306;10.484;2024-02-26T01:18:06;1.40;1.00
4187;DHT22;2107;52.306;10.484;2024-02-26T01:20:34;1.40;99.90
4187;DHT22;2107;52.306;10.484;2024-02-26T01:23:00;1.30;99.90
4187;DHT22;2107;52.306;10.484;2024-02-26T01:25:28;1.30;99.90
4187;DHT22;2107;52.306;10.484;2024-02-26T01:27:54;1.20;99.90
4187;DHT22;2107;52.306;10.484;2024-02-26T01:30:21;1.10;99.90
4187;DHT22;2107;52.306;10.484;2024-02-26T01:32:49;1.10;99.90
4187;DHT22;2107;52.306;10.484;2024-02-26T01:35:16;1.10;99.90
4187;DHT22;2107;52.306;10.484;2024-02-26T01:37:43;1.00;99.90
4187;DHT22;2107;52.306;10.484;2024-02-26T01:40:11;1.00;99.90
4187;DHT22;2107;52.306;10.484;2024-02-26T01:42:43;0.90;99.90
4187;DHT22;2107;52.306;10.484;2024-02-26T01:45:13;0.80;99.90
4187;DHT22;2107;52.306;10.484;2024-02-26T01:47:46;0.70;99.90
4187;DHT22;2107;52.306;10.484;2024-02-26T01:50:14;0.60;99.90
4187;DHT22;2107;52.306;10.484;2024-02-26T01:52:41;0.60;99.90
4187;DHT22;2107;52.306;10.484;2024-02-26T01:55:08;0.50;99.90
4187;DHT22;2107;52.306;10.484;2024-02-26T01:57:35;0.50;99.90
4187;DHT22;2107;52.306;10.484;2024-02-26T02:00:03;0.40;99.90
4187;DHT22;2107;52.306;10.484;2024-02-26T02:02:31;0.30;99.90
4187;DHT22;2107;52.306;10.484;2024-02-26T02:04:58;0.30;99.90
4187;DHT22;2107;52.306;10.484;2024-02-26T02:07:26;0.20;99.90
4187;DHT22;2107;52.306;10.484;2024-02-26T02:09:54;0.30;99.90
4187;DHT22;2107;52.306;10.484;2024-02-26T02:12:21;0.20;99.90
4187;DHT22;2107;52.306;10.484;2024-02-26T02:14:48;0.20;99.90
4187;DHT22;2107;52.306;10.484;2024-02-26T02:17:15;0.30;99.90
4187;DHT22;2107;52.306;10.484;2024-02-26T02:19:42;0.30;99.90
4187;DHT22;2107;52.306;10.484;2024-02-26T02:22:10;0.40;99.90
4187;DHT22;2107;52.306;10.484;2024-02-26T02:24:37;0.40;99.90
4187;DHT22;2107;52.306;10.484;2024-02-26T02:27:05;0.40;99.90
4187;DHT22;2107;52.306;10.484;2024-02-26T02:29:31;0.40;99.90
4187;DHT22;2107;52.306;10.484;2024-02-26T02:31:59;0.50;99.90
4187;DHT22;2107;52.306;10.484;2024-02-26T02:34:28;0.60;99.90
4187;DHT22;2107;52.306;10.484;2024-02-26T02:36:55;0.50;99.90
4187;DHT22;2107;52.306;10.484;2024-02-26T02:39:23;0.50;99.90
4187;DHT22;2107;52.306;10.484;2024-02-26T02:41:50;0.40;99.90
4187;DHT22;2107;52.306;10.484;2024-02-26T02:44:17;0.40;99.90
4187;DHT22;2107;52.306;10.484;2024-02-26T02:46:44;0.40;99.90
4187;DHT22;2107;52.306;10.484;2024-02-26T02:49:11;0.40;99.90
4187;DHT22;2107;52.306;10.484;2024-02-26T02:51:38;0.40;99.90
4187;DHT22;2107;52.306;10.484;2024-02-26T02:54:04;0.40;99.90
4187;DHT22;2107;52.306;10.484;2024-02-26T02:56:33;0.40;99.90
4187;DHT22;2107;52.306;10.484;2024-02-26T02:59:00;0.40;99.90
4187;DHT22;2107;52.306;10.484;2024-02-26T03:01:26;0.40;99.90
4187;DHT22;2107;52.306;10.484;2024-02-26T03:03:53;0.50;99.90
4187;DHT22;2107;52.306;10.484;2024-02-26T03:06:20;0.50;99.90
4187;DHT22;2107;52.306;10.484;2024-02-26T03:08:47;0.50;99.90
4187;DHT22;2107;52.306;10.484;2024-02-26T03:11:14;0.60;99.90
4187;DHT22;2107;52.306;10.484;2024-02-26T03:13:43;0.60;99.90
4187;DHT22;2107;52.306;10.484;2024-02-26T03:16:10;0.70;99.90
4187;DHT22;2107;52.306;10.484;2024-02-26T03:18:38;0.60;99.90
4187;DHT22;2107;52.306;10.484;2024-02-26T03:21:05;0.70;99.90
4187;DHT22;2107;52.306;10.484;2024-02-26T03:23:33;0.70;99.90
4187;DHT22;2107;52.306;10.484;2024-02-26T03:26:02;0.70;99.90
4187;DHT22;2107;52.306;10.484;2024-02-26T03:28:29;0.60;99.90
4187;DHT22;2107;52.306;10.484;2024-02-26T03:30:57;0.60;99.90
4187;DHT22;2107;52.306;10.484;2024-02-26T03:33:24;0.60;99.90
4187;DHT22;2107;52.306;10.484;2024-02-26T03:35:51;0.60;99.90
4187;DHT22;2107;52.306;10.484;2024-02-26T03:38:18;0.60;99.90
4187;DHT22;2107;52.306;10.484;2024-02-26T03:40:45;0.60;99.90
4187;DHT22;2107;52.306;10.484;2024-02-26T03:43:12;0.70;99.90
4187;DHT22;2107;52.306;10.484;2024-02-26T03:45:38;0.70;99.90
4187;DHT22;2107;52.306;10.484;2024-02-26T03:48:07;0.70;99.90
4187;DHT22;2107;52.306;10.484;2024-02-26T03:50:34;0.80;99.90
4187;DHT22;2107;52.306;10.484;2024-02-26T03:53:01;0.80;99.90
4187;DHT22;2107;52.306;10.484;2024-02-26T03:55:28;0.70;99.90
4187;DHT22;2107;52.306;10.484;2024-02-26T03:57:55;0.70;99.90
4187;DHT22;2107;52.306;10.484;2024-02-26T04:00:22;0.50;99.90
4187;DHT22;2107;52.306;10.484;2024-02-26T04:02:49;0.50;99.90
4187;DHT22;2107;52.306;10.484;2024-02-26T04:05:17;0.50;99.90
4187;DHT22;2107;52.306;10.484;2024-02-26T04:07:44;0.50;99.90
4187;DHT22;2107;52.306;10.484;2024-02-26T04:10:11;0.50;99.90
4187;DHT22;2107;52.306;10.484;2024-02-26T04:12:38;0.60;99.90
4187;DHT22;2107;52.306;10.484;2024-02-26T04:15:07;0.60;99.90
4187;DHT22;2107;52.306;10.484;2024-02-26T04:17:34;0.60;99.90
4187;DHT22;2107;52.306;10.484;2024-02-26T04:20:01;0.50;99.90
4187;DHT22;2107;52.306;10.484;2024-02-26T04:22:30;0.60;99.90
4187;DHT22;2107;52.306;10.484;2024-02-26T04:24:57;0.60;99.90
4187;DHT22;2107;52.306;10.484;2024-02-26T04:27:24;0.70;99.90
4187;DHT22;2107;52.306;10.484;2024-02-26T04:29:51;0.80;99.90
4187;DHT22;2107;52.306;10.484;2024-02-26T04:32:18;0.80;99.90
4187;DHT22;2107;52.306;10.484;2024-02-26T04:34:45;1.00;99.90
4187;DHT22;2107;52.306;10.484;2024-02-26T04:37:11;1.20;99.90
4187;DHT22;2107;52.306;10.484;2024-02-26T04:39:40;1.20;99.90
4187;DHT22;2107;52.306;10.484;2024-02-26T04:42:06;1.30;99.90
4187;DHT22;2107;52.306;10.484;2024-02-26T04:44:33;1.40;99.90
4187;DHT22;2107;52.306;10.484;2024-02-26T04:47:00;1.40;99.90
4187;DHT22;2107;52.306;10.484;2024-02-26T04:49:28;1.40;99.90
4187;DHT22;2107;52.306;10.484;2024-02-26T04:51:55;1.30;99.90
4187;DHT22;2107;52.306;10.484;2024-02-26T04:54:21;1.30;99.90
4187;DHT22;2107;52.306;10.484;2024-02-26T04:56:50;1.20;99.90
4187;DHT22;2107;52.306;10.484;2024-02-26T04:59:17;1.30;99.90
4187;DHT22;2107;52.306;10.484;2024-02-26T05:01:44;1.40;99.90
4187;DHT22;2107;52.306;10.484;2024-02-26T05:04:11;1.40;99.90
4187;DHT22;2107;52.306;10.484;2024-02-26T05:06:37;1.40;99.90
4187;DHT22;2107;52.306;10.484;2024-02-26T05:09:04;1.40;99.90
4187;DHT22;2107;52.306;10.484;2024-02-26T05:11:31;1.40;99.90
4187;DHT22;2107;52.306;10.484;2024-02-26T05:13:59;1.50;99.90
4187;DHT22;2107;52.306;10.484;2024-02-26T05:16:26;1.40;99.90
4187;DHT22;2107;52.306;10.484;2024-02-26T05:18:55;1.50;99.90
4187;DHT22;2107;52.306;10.484;2024-02-26T05:21:22;1.60;99.90
4187;DHT22;2107;52.306;10.484;2024-02-26T05:23:49;1.70;99.90
4187;DHT22;2107;52.306;10.484;2024-02-26T05:26:20;1.70;99.90
4187;DHT22;2107;52.306;10.484;2024-02-26T05:28:47;1.80;99.90
4187;DHT22;2107;52.306;10.484;2024-02-26T05:31:16;1.80;99.90
4187;DHT22;2107;52.306;10.484;2024-02-26T05:33:46;1.80;99.90
4187;DHT22;2107;52.306;10.484;2024-02-26T05:36:18;1.80;99.90
4187;DHT22;2107;52.306;10.484;2024-02-26T05:38:46;1.80;99.90
4187;DHT22;2107;52.306;10.484;2024-02-26T05:41:15;1.80;99.90
4187;DHT22;2107;52.306;10.484;2024-02-26T05:43:41;1.80;99.90
4187;DHT22;2107;52.306;10.484;2024-02-26T05:46:08;1.90;99.90
4187;DHT22;2107;52.306;10.484;2024-02-26T05:48:37;2.00;99.90
4187;DHT22;2107;52.306;10.484;2024-02-26T05:51:04;2.00;99.90
4187;DHT22;2107;52.306;10.484;2024-02-26T05:53:31;2.10;99.90
4187;DHT22;2107;52.306;10.484;2024-02-26T05:55:59;2.10;99.90
4187;DHT22;2107;52.306;10.484;2024-02-26T05:58:26;2.20;99.90
4187;DHT22;2107;52.306;10.484;2024-02-26T06:00:53;2.20;99.90
4187;DHT22;2107;52.306;10.484;2024-02-26T06:03:20;2.20;99.90
4187;DHT22;2107;52.306;10.484;2024-02-26T06:05:48;2.30;99.90
4187;DHT22;2107;52.306;10.484;2024-02-26T06:08:15;2.40;99.90
4187;DHT22;2107;52.306;10.484;2024-02-26T06:10:42;2.30;99.90
4187;DHT22;2107;52.306;10.484;2024-02-26T06:13:09;2.30;99.90
4187;DHT22;2107;52.306;10.484;2024-02-26T06:15:37;2.30;99.90
4187;DHT22;2107;52.306;10.484;2024-02-26T06:18:04;2.30;99.90
4187;DHT22;2107;52.306;10.484;2024-02-26T06:20:31;2.30;99.90
4187;DHT22;2107;52.306;10.484;2024-02-26T06:23:02;2.30;99.90
4187;DHT22;2107;52.306;10.484;2024-02-26T06:25:28;2.40;99.90
4187;DHT22;2107;52.306;10.484;2024-02-26T06:27:55;2.30;99.90
4187;DHT22;2107;52.306;10.484;2024-02-26T06:30:22;2.30;99.90
4187;DHT22;2107;52.306;10.484;2024-02-26T06:32:49;2.30;99.90
4187;DHT22;2107;52.306;10.484;2024-02-26T06:35:16;2.40;99.90
4187;DHT22;2107;52.306;10.484;2024-02-26T06:37:43;2.40;99.90
4187;DHT22;2107;52.306;10.484;2024-02-26T06:40:11;2.40;99.90
4187;DHT22;2107;52.306;10.484;2024-02-26T06:42:38;2.40;99.90
4187;DHT22;2107;52.306;10.484;2024-02-26T06:45:06;2.50;99.90
4187;DHT22;2107;52.306;10.484;2024-02-26T06:47:33;2.50;99.90
4187;DHT22;2107;52.306;10.484;2024-02-26T06:50:00;2.60;99.90
4187;DHT22;2107;52.306;10.484;2024-02-26T06:52:27;2.60;99.90
4187;DHT22;2107;52.306;10.484;2024-02-26T06:54:53;2.80;99.90
4187;DHT22;2107;52.306;10.484;2024-02-26T06:57:22;2.60;99.90
4187;DHT22;2107;52.306;10.484;2024-02-26T06:59:49;2.70;99.90
4187;DHT22;2107;52.306;10.484;2024-02-26T07:02:16;2.70;99.90
4187;DHT22;2107;52.306;10.484;2024-02-26T07:04:43;2.70;99.90
4187;DHT22;2107;52.306;10.484;2024-02-26T07:07:10;2.70;99.90
4187;DHT22;2107;52.306;10.484;2024-02-26T07:09:37;2.80;99.90
4187;DHT22;2107;52.306;10.484;2024-02-26T07:12:04;2.90;99.90
4187;DHT22;2107;52.306;10.484;2024-02-26T07:14:32;3.00;99.90
4187;DHT22;2107;52.306;10.484;2024-02-26T07:16:59;3.00;99.90
4187;DHT22;2107;52.306;10.484;2024-02-26T07:19:26;3.10;99.90
4187;DHT22;2107;52.306;10.484;2024-02-26T07:21:53;3.30;99.90
4187;DHT22;2107;52.306;10.484;2024-02-26T07:24:20;3.20;99.90
4187;DHT22;2107;52.306;10.484;2024-02-26T07:26:47;3.30;99.90
4187;DHT22;2107;52.306;10.484;2024-02-26T07:29:14;3.40;99.90
4187;DHT22;2107;52.306;10.484;2024-02-26T07:31:42;3.40;99.90
4187;DHT22;2107;52.306;10.484;2024-02-26T07:34:09;3.50;99.90
4187;DHT22;2107;52.306;10.484;2024-02-26T07:36:36;3.50;99.90
4187;DHT22;2107;52.306;10.484;2024-02-26T07:39:03;3.60;99.90
4187;DHT22;2107;52.306;10.484;2024-02-26T07:41:30;3.80;99.90
4187;DHT22;2107;52.306;10.484;2024-02-26T07:43:57;3.70;99.90
4187;DHT22;2107;52.306;10.484;2024-02-26T07:46:24;3.80;99.90
4187;DHT22;2107;52.306;10.484;2024-02-26T07:48:53;3.80;99.90
4187;DHT22;2107;52.306;10.484;2024-02-26T07:51:20;3.90;99.90
4187;DHT22;2107;52.306;10.484;2024-02-26T07:53:48;4.00;99.90
4187;DHT22;2107;52.306;10.484;2024-02-26T07:56:14;4.10;99.90
4187;DHT22;2107;52.306;10.484;2024-02-26T07:58:41;4.20;99.90
4187;DHT22;2107;52.306;10.484;2024-02-26T08:01:08;4.30;99.90
4187;DHT22;2107;52.306;10.484;2024-02-26T08:03:37;4.30;99.90
4187;DHT22;2107;52.306;10.484;2024-02-26T08:06:05;4.40;99.90
4187;DHT22;2107;52.306;10.484;2024-02-26T08:08:32;4.40;99.90
4187;DHT22;2107;52.306;10.484;2024-02-26T08:10:59;4.50;99.90
4187;DHT22;2107;52.306;10.484;2024-02-26T08:13:26;4.50;99.90
4187;DHT22;2107;52.306;10.484;2024-02-26T08:15:53;4.60;99.90
4187;DHT22;2107;52.306;10.484;2024-02-26T08:18:21;4.60;99.90
4187;DHT22;2107;52.306;10.484;2024-02-26T08:20:48;4.70;99.90
4187;DHT22;2107;52.306;10.484;2024-02-26T08:23:17;4.70;99.90
4187;DHT22;2107;52.306;10.484;2024-02-26T08:25:43;4.90;99.90
4187;DHT22;2107;52.306;10.484;2024-02-26T08:28:10;5.00;99.90
4187;DHT22;2107;52.306;10.484;2024-02-26T08:30:38;5.10;99.90
4187;DHT22;2107;52.306;10.484;2024-02-26T08:33:05;5.00;99.90
4187;DHT22;2107;52.306;10.484;2024-02-26T08:35:32;5.00;99.90
4187;DHT22;2107;52.306;10.484;2024-02-26T08:37:59;5.10;99.90
4187;DHT22;2107;52.306;10.484;2024-02-26T08:40:27;5.10;99.90
4187;DHT22;2107;52.306;10.484;2024-02-26T08:42:54;5.10;99.90
4187;DHT22;2107;52.306;10.484;2024-02-26T08:45:22;5.10;99.90
4187;DHT22;2107;52.306;10.484;2024-02-26T08:47:48;5.10;99.90
4187;DHT22;2107;52.306;10.484;2024-02-26T08:50:15;5.20;99.90
4187;DHT22;2107;52.306;10.484;2024-02-26T08:52:42;5.20;99.90
4187;DHT22;2107;52.306;10.484;2024-02-26T08:55:09;5.20;99.90
4187;DHT22;2107;52.306;10.484;2024-02-26T08:57:37;5.30;99.90
4187;DHT22;2107;52.306;10.484;2024-02-26T09:00:05;5.20;99.90
4187;DHT22;2107;52.306;10.484;2024-02-26T09:02:32;5.40;99.90
4187;DHT22;2107;52.306;10.484;2024-02-26T09:04:59;5.50;99.90
4187;DHT22;2107;52.306;10.484;2024-02-26T09:07:26;5.60;99.90
4187;DHT22;2107;52.306;10.484;2024-02-26T09:09:54;5.60;99.90
4187;DHT22;2107;52.306;10.484;2024-02-26T09:12:21;5.80;99.90
4187;DHT22;2107;52.306;10.484;2024-02-26T09:14:49;5.90;99.90
4187;DHT22;2107;52.306;10.484;2024-02-26T09:17:17;6.10;99.90
4187;DHT22;2107;52.306;10.484;2024-02-26T09:19:44;5.90;99.90
4187;DHT22;2107;52.306;10.484;2024-02-26T09:22:11;5.90;99.90
4187;DHT22;2107;52.306;10.484;2024-02-26T09:24:38;5.90;99.90
4187;DHT22;2107;52.306;10.484;2024-02-26T09:27:05;5.90;99.90
4187;DHT22;2107;52.306;10.484;2024-02-26T09:29:32;6.00;99.90
4187;DHT22;2107;52.306;10.484;2024-02-26T09:32:00;5.90;99.90
4187;DHT22;2107;52.306;10.484;2024-02-26T09:34:28;6.00;99.90
4187;DHT22;2107;52.306;10.484;2024-02-26T09:36:55;6.10;99.90
4187;DHT22;2107;52.306;10.484;2024-02-26T09:39:22;6.20;99.90
4187;DHT22;2107;52.306;10.484;2024-02-26T09:41:49;6.20;99.90
4187;DHT22;2107;52.306;10.484;2024-02-26T09:44:19;6.20;99.90
4187;DHT22;2107;52.306;10.484;2024-02-26T09:46:47;6.10;99.90
4187;DHT22;2107;52.306;10.484;2024-02-26T09:49:17;6.10;99.90
4187;DHT22;2107;52.306;10.484;2024-02-26T09:51:45;6.30;99.90
4187;DHT22;2107;52.306;10.484;2024-02-26T09:54:15;6.40;99.90
4187;DHT22;2107;52.306;10.484;2024-02-26T09:56:43;6.60;99.90
4187;DHT22;2107;52.306;10.484;2024-02-26T09:59:16;6.80;99.90
4187;DHT22;2107;52.306;10.484;2024-02-26T10:01:44;6.80;99.90
4187;DHT22;2107;52.306;10.484;2024-02-26T10:04:12;6.90;99.90
4187;DHT22;2107;52.306;10.484;2024-02-26T10:06:41;6.90;99.90
4187;DHT22;2107;52.306;10.484;2024-02-26T10:09:10;6.80;99.90
4187;DHT22;2107;52.306;10.484;2024-02-26T10:11:38;6.80;99.90
4187;DHT22;2107;52.306;10.484;2024-02-26T10:14:05;7.00;99.90
4187;DHT22;2107;52.306;10.484;2024-02-26T10:16:32;7.10;99.90
4187;DHT22;2107;52.306;10.484;2024-02-26T10:19:00;7.00;99.90
4187;DHT22;2107;52.306;10.484;2024-02-26T10:21:27;7.20;99.90
4187;DHT22;2107;52.306;10.484;2024-02-26T10:23:55;7.30;99.90
4187;DHT22;2107;52.306;10.484;2024-02-26T10:26:22;7.30;99.90
4187;DHT22;2107;52.306;10.484;2024-02-26T10:28:49;7.10;99.90
4187;DHT22;2107;52.306;10.484;2024-02-26T10:31:16;7.00;99.90
4187;DHT22;2107;52.306;10.484;2024-02-26T10:33:43;7.00;99.90
4187;DHT22;2107;52.306;10.484;2024-02-26T10:36:11;7.10;99.90
4187;DHT22;2107;52.306;10.484;2024-02-26T10:38:38;7.20;99.90
4187;DHT22;2107;52.306;10.484;2024-02-26T10:41:06;7.20;99.90
4187;DHT22;2107;52.306;10.484;2024-02-26T10:43:33;7.20;99.90
4187;DHT22;2107;52.306;10.484;2024-02-26T10:46:00;7.20;99.90
4187;DHT22;2107;52.306;10.484;2024-02-26T10:48:27;7.20;99.90
4187;DHT22;2107;52.306;10.484;2024-02-26T10:50:54;7.30;99.90
4187;DHT22;2107;52.306;10.484;2024-02-26T10:53:23;7.40;99.90
4187;DHT22;2107;52.306;10.484;2024-02-26T10:55:54;7.30;99.90
4187;DHT22;2107;52.306;10.484;2024-02-26T10:58:24;7.20;99.90
4187;DHT22;2107;52.306;10.484;2024-02-26T11:00:52;7.20;99.90
4187;DHT22;2107;52.306;10.484;2024-02-26T11:03:20;7.40;99.90
4187;DHT22;2107;52.306;10.484;2024-02-26T11:05:48;7.30;99.90
4187;DHT22;2107;52.306;10.484;2024-02-26T11:08:17;7.10;99.90
4187;DHT22;2107;52.306;10.484;2024-02-26T11:10:46;7.20;99.90
4187;DHT22;2107;52.306;10.484;2024-02-26T11:13:15;7.30;99.90
4187;DHT22;2107;52.306;10.484;2024-02-26T11:15:46;7.30;99.90
4187;DHT22;2107;52.306;10.484;2024-02-26T11:18:15;7.00;99.90
4187;DHT22;2107;52.306;10.484;2024-02-26T11:20:42;7.10;99.90
4187;DHT22;2107;52.306;10.484;2024-02-26T11:23:09;7.20;99.90
4187;DHT22;2107;52.306;10.484;2024-02-26T11:25:37;7.30;99.90
4187;DHT22;2107;52.306;10.484;2024-02-26T11:28:08;7.50;99.90
4187;DHT22;2107;52.306;10.484;2024-02-26T11:30:41;7.80;99.90
4187;DHT22;2107;52.306;10.484;2024-02-26T11:33:10;7.70;99.90
4187;DHT22;2107;52.306;10.484;2024-02-26T11:35:39;7.70;99.90
4187;DHT22;2107;52.306;10.484;2024-02-26T11:38:06;7.80;99.90
4187;DHT22;2107;52.306;10.484;2024-02-26T11:40:33;7.70;99.90
4187;DHT22;2107;52.306;10.484;2024-02-26T11:43:05;7.90;99.90
4187;DHT22;2107;52.306;10.484;2024-02-26T11:45:56;8.00;99.90
4187;DHT22;2107;52.306;10.484;2024-02-26T11:48:28;8.00;99.90
4187;DHT22;2107;52.306;10.484;2024-02-26T11:50:57;8.30;99.90
4187;DHT22;2107;52.306;10.484;2024-02-26T11:53:26;8.20;99.90
4187;DHT22;2107;52.306;10.484;2024-02-26T11:56:12;8.40;99.90
4187;DHT22;2107;52.306;10.484;2024-02-26T11:58:39;8.30;99.90
4187;DHT22;2107;52.306;10.484;2024-02-26T12:01:36;8.10;99.90
4187;DHT22;2107;52.306;10.484;2024-02-26T12:04:05;8.30;99.90
4187;DHT22;2107;52.306;10.484;2024-02-26T12:06:41;8.50;99.90
4187;DHT22;2107;52.306;10.484;2024-02-26T12:09:08;8.80;99.90
4187;DHT22;2107;52.306;10.484;2024-02-26T12:11:37;8.80;99.90
4187;DHT22;2107;52.306;10.484;2024-02-26T12:14:06;9.10;99.90
4187;DHT22;2107;52.306;10.484;2024-02-26T12:16:38;9.20;99.90
4187;DHT22;2107;52.306;10.484;2024-02-26T12:19:08;9.20;99.90
4187;DHT22;2107;52.306;10.484;2024-02-26T12:21:36;9.30;99.90
4187;DHT22;2107;52.306;10.484;2024-02-26T12:24:13;9.40;99.90
4187;DHT22;2107;52.306;10.484;2024-02-26T12:26:41;9.50;99.90
4187;DHT22;2107;52.306;10.484;2024-02-26T12:29:08;9.50;99.90
4187;DHT22;2107;52.306;10.484;2024-02-26T12:31:37;9.30;99.90
4187;DHT22;2107;52.306;10.484;2024-02-26T12:34:06;9.00;99.90
4187;DHT22;2107;52.306;10.484;2024-02-26T12:36:35;8.90;99.90
4187;DHT22;2107;52.306;10.484;2024-02-26T12:39:03;8.90;99.90
4187;DHT22;2107;52.306;10.484;2024-02-26T12:41:31;8.90;99.90
4187;DHT22;2107;52.306;10.484;2024-02-26T12:43:59;8.60;99.90
4187;DHT22;2107;52.306;10.484;2024-02-26T12:46:26;8.60;99.90
4187;DHT22;2107;52.306;10.484;2024-02-26T12:48:55;8.50;99.90
4187;DHT22;2107;52.306;10.484;2024-02-26T12:51:25;8.50;99.90
4187;DHT22;2107;52.306;10.484;2024-02-26T12:53:55;8.40;99.90
4187;DHT22;2107;52.306;10.484;2024-02-26T12:56:25;8.50;99.90
4187;DHT22;2107;52.306;10.484;2024-02-26T12:58:53;8.50;99.90
4187;DHT22;2107;52.306;10.484;2024-02-26T13:01:23;8.40;99.90
4187;DHT22;2107;52.306;10.484;2024-02-26T13:03:51;8.50;99.90
4187;DHT22;2107;52.306;10.484;2024-02-26T13:06:19;8.50;99.90
4187;DHT22;2107;52.306;10.484;2024-02-26T13:08:56;8.60;99.90
4187;DHT22;2107;52.306;10.484;2024-02-26T13:11:24;8.60;99.90
4187;DHT22;2107;52.306;10.484;2024-02-26T13:13:52;8.60;99.90
4187;DHT22;2107;52.306;10.484;2024-02-26T13:16:23;8.60;99.90
4187;DHT22;2107;52.306;10.484;2024-02-26T13:18:50;8.50;99.90
4187;DHT22;2107;52.306;10.484;2024-02-26T13:21:19;8.50;99.90
4187;DHT22;2107;52.306;10.484;2024-02-26T13:23:51;8.40;99.90
4187;DHT22;2107;52.306;10.484;2024-02-26T13:26:22;8.50;99.90
4187;DHT22;2107;52.306;10.484;2024-02-26T13:29:00;8.50;99.90
4187;DHT22;2107;52.306;10.484;2024-02-26T13:31:29;8.50;99.90
4187;DHT22;2107;52.306;10.484;2024-02-26T13:33:56;8.50;99.90
4187;DHT22;2107;52.306;10.484;2024-02-26T13:36:24;8.40;99.90
4187;DHT22;2107;52.306;10.484;2024-02-26T13:38:51;8.50;99.90
4187;DHT22;2107;52.306;10.484;2024-02-26T13:41:21;8.50;99.90
4187;DHT22;2107;52.306;10.484;2024-02-26T13:43:48;8.50;99.90
4187;DHT22;2107;52.306;10.484;2024-02-26T13:46:15;8.50;99.90
4187;DHT22;2107;52.306;10.484;2024-02-26T13:48:42;8.40;99.90
4187;DHT22;2107;52.306;10.484;2024-02-26T13:51:10;8.50;99.90
4187;DHT22;2107;52.306;10.484;2024-02-26T13:53:37;8.50;99.90
4187;DHT22;2107;52.306;10.484;2024-02-26T13:56:04;8.70;99.90
4187;DHT22;2107;52.306;10.484;2024-02-26T13:58:34;8.80;99.90
4187;DHT22;2107;52.306;10.484;2024-02-26T14:01:01;8.90;99.90
4187;DHT22;2107;52.306;10.484;2024-02-26T14:03:29;8.80;99.90
4187;DHT22;2107;52.306;10.484;2024-02-26T14:05:56;8.80;99.90
4187;DHT22;2107;52.306;10.484;2024-02-26T14:08:24;8.80;99.90
4187;DHT22;2107;52.306;10.484;2024-02-26T14:10:51;8.80;99.90
4187;DHT22;2107;52.306;10.484;2024-02-26T14:13:17;8.60;99.90
4187;DHT22;2107;52.306;10.484;2024-02-26T14:15:46;8.60;99.90
4187;DHT22;2107;52.306;10.484;2024-02-26T14:18:13;8.60;99.90
4187;DHT22;2107;52.306;10.484;2024-02-26T14:20:40;8.40;99.90
4187;DHT22;2107;52.306;10.484;2024-02-26T14:23:07;8.40;99.90
4187;DHT22;2107;52.306;10.484;2024-02-26T14:25:35;8.30;99.90
4187;DHT22;2107;52.306;10.484;2024-02-26T14:28:02;8.20;99.90
4187;DHT22;2107;52.306;10.484;2024-02-26T14:30:29;8.20;99.90
4187;DHT22;2107;52.306;10.484;2024-02-26T14:32:57;8.10;99.90
4187;DHT22;2107;52.306;10.484;2024-02-26T14:35:24;8.10;99.90
4187;DHT22;2107;52.306;10.484;2024-02-26T14:37:53;8.00;99.90
4187;DHT22;2107;52.306;10.484;2024-02-26T14:40:29;8.00;99.90
4187;DHT22;2107;52.306;10.484;2024-02-26T14:42:57;8.00;99.90
4187;DHT22;2107;52.306;10.484;2024-02-26T14:45:25;8.00;99.90
4187;DHT22;2107;52.306;10.484;2024-02-26T14:47:54;8.00;99.90
4187;DHT22;2107;52.306;10.484;2024-02-26T14:50:23;8.00;99.90
4187;DHT22;2107;52.306;10.484;2024-02-26T14:52:49;8.00;99.90
4187;DHT22;2107;52.306;10.484;2024-02-26T14:55:16;8.00;99.90
4187;DHT22;2107;52.306;10.484;2024-02-26T14:57:43;8.00;99.90
4187;DHT22;2107;52.306;10.484;2024-02-26T15:00:11;8.00;99.90
4187;DHT22;2107;52.306;10.484;2024-02-26T15:02:38;8.00;99.90
4187;DHT22;2107;52.306;10.484;2024-02-26T15:05:06;7.90;99.90
4187;DHT22;2107;52.306;10.484;2024-02-26T15:07:38;7.90;99.90
4187;DHT22;2107;52.306;10.484;2024-02-26T15:10:07;7.90;99.90
4187;DHT22;2107;52.306;10.484;2024-02-26T15:12:36;7.90;99.90
4187;DHT22;2107;52.306;10.484;2024-02-26T15:15:03;7.80;99.90
4187;DHT22;2107;52.306;10.484;2024-02-26T15:17:32;7.80;99.90
4187;DHT22;2107;52.306;10.484;2024-02-26T15:20:00;7.80;99.90
4187;DHT22;2107;52.306;10.484;2024-02-26T15:22:28;7.80;99.90
4187;DHT22;2107;52.306;10.484;2024-02-26T15:24:56;7.80;99.90
4187;DHT22;2107;52.306;10.484;2024-02-26T15:27:23;7.80;99.90
4187;DHT22;2107;52.306;10.484;2024-02-26T15:29:50;7.80;99.90
4187;DHT22;2107;52.306;10.484;2024-02-26T15:32:23;7.90;99.90
4187;DHT22;2107;52.306;10.484;2024-02-26T15:34:52;7.90;99.90
4187;DHT22;2107;52.306;10.484;2024-02-26T15:37:20;7.80;99.90
4187;DHT22;2107;52.306;10.484;2024-02-26T15:39:47;7.80;99.90
4187;DHT22;2107;52.306;10.484;2024-02-26T15:42:16;7.80;99.90
4187;DHT22;2107;52.306;10.484;2024-02-26T15:44:43;7.80;99.90
4187;DHT22;2107;52.306;10.484;2024-02-26T15:47:11;7.80;99.90
4187;DHT22;2107;52.306;10.484;2024-02-26T15:49:39;7.80;99.90
4187;DHT22;2107;52.306;10.484;2024-02-26T15:52:06;7.80;99.90
4187;DHT22;2107;52.306;10.484;2024-02-26T15:54:33;7.80;99.90
4187;DHT22;2107;52.306;10.484;2024-02-26T15:57:04;7.80;99.90
4187;DHT22;2107;52.306;10.484;2024-02-26T15:59:34;7.80;99.90
4187;DHT22;2107;52.306;10.484;2024-02-26T16:02:03;7.80;99.90
4187;DHT22;2107;52.306;10.484;2024-02-26T16:04:30;7.80;99.90
4187;DHT22;2107;52.306;10.484;2024-02-26T16:07:01;7.70;99.90